sensor_id;sensor_type;location;lat;lon;timestamp;P1;durP1;ratioP1;P2;durP2;ratioP2
42478;SDS011;28110;47.080;9.476;2023-02-14T00:01:11;32.63;;;14.55;;
42478;SDS011;28110;47.080;9.476;2023-02-14T00:03:37;36.65;;;16.05;;
42478;SDS011;28110;47.080;9.476;2023-02-14T00:06:06;38.33;;;15.93;;
42478;SDS011;28110;47.080;9.476;2023-02-14T00:08:33;29.33;;;14.60;;
42478;SDS011;28110;47.080;9.476;2023-02-14T00:10:59;32.60;;;15.63;;
42478;SDS011;28110;47.080;9.476;2023-02-14T00:13:24;32.63;;;14.20;;
42478;SDS011;28110;47.080;9.476;2023-02-14T00:15:50;38.07;;;15.77;;
42478;SDS011;28110;47.080;9.476;2023-02-14T00:18:15;34.50;;;16.33;;
42478;SDS011;28110;47.080;9.476;2023-02-14T00:20:41;30.13;;;14.50;;
42478;SDS011;28110;47.080;9.476;2023-02-14T00:23:06;30.25;;;14.20;;
42478;SDS011;28110;47.080;9.476;2023-02-14T00:25:32;29.43;;;15.17;;
42478;SDS011;28110;47.080;9.476;2023-02-14T00:27:58;32.40;;;14.90;;
42478;SDS011;28110;47.080;9.476;2023-02-14T00:30:24;28.70;;;13.77;;
42478;SDS011;28110;47.080;9.476;2023-02-14T00:32:49;30.58;;;14.10;;
42478;SDS011;28110;47.080;9.476;2023-02-14T00:35:15;32.50;;;14.67;;
42478;SDS011;28110;47.080;9.476;2023-02-14T00:37:41;33.75;;;15.85;;
42478;SDS011;28110;47.080;9.476;2023-02-14T00:40:06;33.33;;;14.68;;
42478;SDS011;28110;47.080;9.476;2023-02-14T00:42:32;30.35;;;14.43;;
42478;SDS011;28110;47.080;9.476;2023-02-14T00:44:58;30.13;;;14.40;;
42478;SDS011;28110;47.080;9.476;2023-02-14T00:47:24;27.55;;;13.48;;
42478;SDS011;28110;47.080;9.476;2023-02-14T00:49:49;34.80;;;15.10;;
42478;SDS011;28110;47.080;9.476;2023-02-14T00:52:15;31.60;;;15.67;;
42478;SDS011;28110;47.080;9.476;2023-02-14T00:54:40;32.90;;;15.63;;
42478;SDS011;28110;47.080;9.476;2023-02-14T00:57:06;37.67;;;16.30;;
42478;SDS011;28110;47.080;9.476;2023-02-14T00:59:31;31.90;;;15.63;;
42478;SDS011;28110;47.080;9.476;2023-02-14T01:01:57;34.60;;;15.65;;
42478;SDS011;28110;47.080;9.476;2023-02-14T01:04:22;33.87;;;16.17;;
42478;SDS011;28110;47.080;9.476;2023-02-14T01:06:48;41.13;;;16.70;;
42478;SDS011;28110;47.080;9.476;2023-02-14T01:09:14;38.08;;;16.88;;
42478;SDS011;28110;47.080;9.476;2023-02-14T01:11:39;45.37;;;19.03;;
42478;SDS011;28110;47.080;9.476;2023-02-14T01:14:05;39.50;;;17.35;;
42478;SDS011;28110;47.080;9.476;2023-02-14T01:16:31;50.33;;;19.10;;
42478;SDS011;28110;47.080;9.476;2023-02-14T01:18:57;48.78;;;19.23;;
42478;SDS011;28110;47.080;9.476;2023-02-14T01:21:25;48.42;;;19.20;;
42478;SDS011;28110;47.080;9.476;2023-02-14T01:23:54;71.53;;;19.27;;
42478;SDS011;28110;47.080;9.476;2023-02-14T01:26:22;78.27;;;20.40;;
42478;SDS011;28110;47.080;9.476;2023-02-14T01:28:48;54.15;;;19.98;;
42478;SDS011;28110;47.080;9.476;2023-02-14T01:31:17;47.50;;;18.90;;
42478;SDS011;28110;47.080;9.476;2023-02-14T01:33:45;47.53;;;18.77;;
42478;SDS011;28110;47.080;9.476;2023-02-14T01:38:43;49.65;;;19.95;;
42478;SDS011;28110;47.080;9.476;2023-02-14T01:41:08;44.08;;;18.60;;
42478;SDS011;28110;47.080;9.476;2023-02-14T01:46:22;55.08;;;20.13;;
42478;SDS011;28110;47.080;9.476;2023-02-14T01:48:49;43.33;;;19.27;;
42478;SDS011;28110;47.080;9.476;2023-02-14T01:51:18;49.88;;;17.88;;
42478;SDS011;28110;47.080;9.476;2023-02-14T01:53:44;50.23;;;18.67;;
42478;SDS011;28110;47.080;9.476;2023-02-14T01:56:12;123.72;;;20.83;;
42478;SDS011;28110;47.080;9.476;2023-02-14T01:58:43;80.22;;;19.15;;
42478;SDS011;28110;47.080;9.476;2023-02-14T02:01:15;84.90;;;18.45;;
42478;SDS011;28110;47.080;9.476;2023-02-14T02:03:43;36.07;;;17.63;;
42478;SDS011;28110;47.080;9.476;2023-02-14T02:06:15;39.15;;;17.08;;
42478;SDS011;28110;47.080;9.476;2023-02-14T02:08:50;93.03;;;17.77;;
42478;SDS011;28110;47.080;9.476;2023-02-14T02:11:16;67.30;;;17.00;;
42478;SDS011;28110;47.080;9.476;2023-02-14T02:13:42;41.83;;;17.50;;
42478;SDS011;28110;47.080;9.476;2023-02-14T02:30:16;58.40;;;16.97;;
42478;SDS011;28110;47.080;9.476;2023-02-14T02:35:19;38.93;;;18.17;;
42478;SDS011;28110;47.080;9.476;2023-02-14T02:38:05;50.60;;;17.92;;
42478;SDS011;28110;47.080;9.476;2023-02-14T02:48:51;43.00;;;17.63;;
42478;SDS011;28110;47.080;9.476;2023-02-14T02:51:36;85.00;;;19.10;;
42478;SDS011;28110;47.080;9.476;2023-02-14T02:54:31;44.70;;;17.00;;
42478;SDS011;28110;47.080;9.476;2023-02-14T02:57:04;39.35;;;17.48;;
42478;SDS011;28110;47.080;9.476;2023-02-14T02:59:40;40.60;;;18.65;;
42478;SDS011;28110;47.080;9.476;2023-02-14T03:02:29;48.85;;;18.00;;
42478;SDS011;28110;47.080;9.476;2023-02-14T03:04:58;57.75;;;18.73;;
42478;SDS011;28110;47.080;9.476;2023-02-14T03:10:07;42.95;;;18.13;;
42478;SDS011;28110;47.080;9.476;2023-02-14T03:15:20;91.45;;;18.67;;
42478;SDS011;28110;47.080;9.476;2023-02-14T03:21:18;43.73;;;17.27;;
42478;SDS011;28110;47.080;9.476;2023-02-14T03:26:46;92.13;;;16.67;;
42478;SDS011;28110;47.080;9.476;2023-02-14T03:32:05;75.13;;;17.65;;
42478;SDS011;28110;47.080;9.476;2023-02-14T03:35:03;35.93;;;16.07;;
42478;SDS011;28110;47.080;9.476;2023-02-14T03:40:42;37.85;;;16.80;;
42478;SDS011;28110;47.080;9.476;2023-02-14T03:43:15;57.88;;;17.52;;
42478;SDS011;28110;47.080;9.476;2023-02-14T03:48:51;70.77;;;18.60;;
42478;SDS011;28110;47.080;9.476;2023-02-14T03:51:21;57.63;;;15.65;;
42478;SDS011;28110;47.080;9.476;2023-02-14T03:53:49;30.70;;;15.18;;
42478;SDS011;28110;47.080;9.476;2023-02-14T03:56:36;34.25;;;15.90;;
42478;SDS011;28110;47.080;9.476;2023-02-14T03:59:11;33.90;;;16.35;;
42478;SDS011;28110;47.080;9.476;2023-02-14T04:01:45;30.50;;;15.20;;
42478;SDS011;28110;47.080;9.476;2023-02-14T04:04:15;30.58;;;13.90;;
42478;SDS011;28110;47.080;9.476;2023-02-14T04:06:43;31.08;;;15.23;;
42478;SDS011;28110;47.080;9.476;2023-02-14T04:09:09;31.23;;;14.35;;
42478;SDS011;28110;47.080;9.476;2023-02-14T04:11:34;29.13;;;13.90;;
42478;SDS011;28110;47.080;9.476;2023-02-14T04:14:02;31.98;;;15.27;;
42478;SDS011;28110;47.080;9.476;2023-02-14T04:16:28;31.03;;;14.70;;
42478;SDS011;28110;47.080;9.476;2023-02-14T04:18:53;28.77;;;14.23;;
42478;SDS011;28110;47.080;9.476;2023-02-14T04:21:37;30.43;;;13.97;;
42478;SDS011;28110;47.080;9.476;2023-02-14T04:24:03;25.20;;;12.35;;
42478;SDS011;28110;47.080;9.476;2023-02-14T04:26:29;26.35;;;13.48;;
42478;SDS011;28110;47.080;9.476;2023-02-14T04:28:54;28.30;;;14.15;;
42478;SDS011;28110;47.080;9.476;2023-02-14T04:31:20;29.03;;;13.83;;
42478;SDS011;28110;47.080;9.476;2023-02-14T04:33:45;44.67;;;15.33;;
42478;SDS011;28110;47.080;9.476;2023-02-14T04:36:12;26.92;;;13.23;;
42478;SDS011;28110;47.080;9.476;2023-02-14T04:38:38;28.45;;;14.82;;
42478;SDS011;28110;47.080;9.476;2023-02-14T04:41:04;26.38;;;13.43;;
42478;SDS011;28110;47.080;9.476;2023-02-14T04:43:30;28.97;;;13.90;;
42478;SDS011;28110;47.080;9.476;2023-02-14T04:45:55;29.47;;;14.93;;
42478;SDS011;28110;47.080;9.476;2023-02-14T04:48:21;31.67;;;14.77;;
42478;SDS011;28110;47.080;9.476;2023-02-14T04:50:52;27.93;;;14.33;;
42478;SDS011;28110;47.080;9.476;2023-02-14T04:53:19;31.10;;;15.07;;
42478;SDS011;28110;47.080;9.476;2023-02-14T04:55:47;31.27;;;14.52;;
42478;SDS011;28110;47.080;9.476;2023-02-14T04:58:13;31.70;;;14.68;;
42478;SDS011;28110;47.080;9.476;2023-02-14T05:00:39;31.30;;;14.80;;
42478;SDS011;28110;47.080;9.476;2023-02-14T05:03:04;28.17;;;13.97;;
42478;SDS011;28110;47.080;9.476;2023-02-14T05:05:30;26.00;;;13.77;;
42478;SDS011;28110;47.080;9.476;2023-02-14T05:07:55;25.97;;;13.77;;
42478;SDS011;28110;47.080;9.476;2023-02-14T05:10:21;25.87;;;13.07;;
42478;SDS011;28110;47.080;9.476;2023-02-14T05:12:47;25.50;;;13.60;;
42478;SDS011;28110;47.080;9.476;2023-02-14T05:15:12;23.25;;;12.07;;
42478;SDS011;28110;47.080;9.476;2023-02-14T05:17:38;25.92;;;13.38;;
42478;SDS011;28110;47.080;9.476;2023-02-14T05:20:04;23.77;;;13.33;;
42478;SDS011;28110;47.080;9.476;2023-02-14T05:22:30;25.73;;;13.07;;
42478;SDS011;28110;47.080;9.476;2023-02-14T05:24:56;23.90;;;12.93;;
42478;SDS011;28110;47.080;9.476;2023-02-14T05:27:21;25.80;;;12.53;;
42478;SDS011;28110;47.080;9.476;2023-02-14T05:29:47;25.00;;;12.48;;
42478;SDS011;28110;47.080;9.476;2023-02-14T05:32:12;26.03;;;13.07;;
42478;SDS011;28110;47.080;9.476;2023-02-14T05:34:38;23.65;;;12.98;;
42478;SDS011;28110;47.080;9.476;2023-02-14T05:37:04;27.13;;;13.30;;
42478;SDS011;28110;47.080;9.476;2023-02-14T05:39:29;25.43;;;12.43;;
42478;SDS011;28110;47.080;9.476;2023-02-14T05:41:55;41.53;;;13.10;;
42478;SDS011;28110;47.080;9.476;2023-02-14T05:44:20;51.53;;;13.05;;
42478;SDS011;28110;47.080;9.476;2023-02-14T05:46:46;34.65;;;12.43;;
42478;SDS011;28110;47.080;9.476;2023-02-14T05:49:12;24.57;;;12.20;;
42478;SDS011;28110;47.080;9.476;2023-02-14T05:51:37;26.10;;;11.97;;
42478;SDS011;28110;47.080;9.476;2023-02-14T05:54:03;26.83;;;12.20;;
42478;SDS011;28110;47.080;9.476;2023-02-14T05:56:28;34.75;;;14.68;;
42478;SDS011;28110;47.080;9.476;2023-02-14T05:58:54;49.93;;;14.77;;
42478;SDS011;28110;47.080;9.476;2023-02-14T06:01:19;36.90;;;14.33;;
42478;SDS011;28110;47.080;9.476;2023-02-14T06:03:45;37.08;;;13.30;;
42478;SDS011;28110;47.080;9.476;2023-02-14T06:06:10;26.43;;;13.00;;
42478;SDS011;28110;47.080;9.476;2023-02-14T06:08:36;24.97;;;13.27;;
42478;SDS011;28110;47.080;9.476;2023-02-14T06:11:01;25.65;;;11.98;;
42478;SDS011;28110;47.080;9.476;2023-02-14T06:13:27;22.77;;;11.70;;
42478;SDS011;28110;47.080;9.476;2023-02-14T06:15:52;25.83;;;11.80;;
42478;SDS011;28110;47.080;9.476;2023-02-14T06:18:18;22.52;;;11.35;;
42478;SDS011;28110;47.080;9.476;2023-02-14T06:20:44;36.67;;;12.40;;
42478;SDS011;28110;47.080;9.476;2023-02-14T06:23:09;25.67;;;12.87;;
42478;SDS011;28110;47.080;9.476;2023-02-14T06:25:35;28.45;;;13.93;;
42478;SDS011;28110;47.080;9.476;2023-02-14T06:28:00;28.70;;;12.47;;
42478;SDS011;28110;47.080;9.476;2023-02-14T06:30:26;33.77;;;12.50;;
42478;SDS011;28110;47.080;9.476;2023-02-14T06:32:52;32.30;;;12.63;;
42478;SDS011;28110;47.080;9.476;2023-02-14T06:35:17;30.45;;;12.85;;
42478;SDS011;28110;47.080;9.476;2023-02-14T06:37:43;23.57;;;12.50;;
42478;SDS011;28110;47.080;9.476;2023-02-14T06:40:09;25.58;;;13.00;;
42478;SDS011;28110;47.080;9.476;2023-02-14T06:42:36;27.15;;;13.75;;
42478;SDS011;28110;47.080;9.476;2023-02-14T06:45:03;39.47;;;14.10;;
42478;SDS011;28110;47.080;9.476;2023-02-14T06:47:29;34.85;;;13.43;;
42478;SDS011;28110;47.080;9.476;2023-02-14T06:49:54;25.37;;;12.50;;
42478;SDS011;28110;47.080;9.476;2023-02-14T06:52:20;39.97;;;13.98;;
42478;SDS011;28110;47.080;9.476;2023-02-14T06:54:45;25.53;;;13.43;;
42478;SDS011;28110;47.080;9.476;2023-02-14T06:57:11;24.37;;;12.73;;
42478;SDS011;28110;47.080;9.476;2023-02-14T06:59:37;24.70;;;13.13;;
42478;SDS011;28110;47.080;9.476;2023-02-14T07:02:02;25.70;;;13.13;;
42478;SDS011;28110;47.080;9.476;2023-02-14T07:04:28;24.67;;;12.38;;
42478;SDS011;28110;47.080;9.476;2023-02-14T07:06:54;24.97;;;12.93;;
42478;SDS011;28110;47.080;9.476;2023-02-14T07:09:19;23.58;;;12.02;;
42478;SDS011;28110;47.080;9.476;2023-02-14T07:11:45;37.53;;;12.97;;
42478;SDS011;28110;47.080;9.476;2023-02-14T07:14:10;25.23;;;11.63;;
42478;SDS011;28110;47.080;9.476;2023-02-14T07:16:37;25.17;;;12.18;;
42478;SDS011;28110;47.080;9.476;2023-02-14T07:19:02;21.97;;;11.97;;
42478;SDS011;28110;47.080;9.476;2023-02-14T07:21:28;32.50;;;12.90;;
42478;SDS011;28110;47.080;9.476;2023-02-14T07:23:53;21.67;;;11.80;;
42478;SDS011;28110;47.080;9.476;2023-02-14T07:26:19;29.15;;;12.35;;
42478;SDS011;28110;47.080;9.476;2023-02-14T07:28:45;28.53;;;13.10;;
42478;SDS011;28110;47.080;9.476;2023-02-14T07:31:13;30.00;;;13.10;;
42478;SDS011;28110;47.080;9.476;2023-02-14T07:33:39;29.17;;;15.03;;
42478;SDS011;28110;47.080;9.476;2023-02-14T07:36:08;24.45;;;12.43;;
42478;SDS011;28110;47.080;9.476;2023-02-14T07:38:34;24.40;;;13.75;;
42478;SDS011;28110;47.080;9.476;2023-02-14T07:41:00;28.53;;;14.17;;
42478;SDS011;28110;47.080;9.476;2023-02-14T07:43:25;39.40;;;16.05;;
42478;SDS011;28110;47.080;9.476;2023-02-14T07:45:51;36.92;;;14.77;;
42478;SDS011;28110;47.080;9.476;2023-02-14T07:48:17;35.17;;;15.43;;
42478;SDS011;28110;47.080;9.476;2023-02-14T07:50:42;29.97;;;14.00;;
42478;SDS011;28110;47.080;9.476;2023-02-14T07:53:08;33.83;;;14.70;;
42478;SDS011;28110;47.080;9.476;2023-02-14T07:55:33;28.73;;;13.53;;
42478;SDS011;28110;47.080;9.476;2023-02-14T07:57:59;34.00;;;13.87;;
42478;SDS011;28110;47.080;9.476;2023-02-14T08:00:25;39.65;;;15.40;;
42478;SDS011;28110;47.080;9.476;2023-02-14T08:02:51;35.72;;;13.38;;
42478;SDS011;28110;47.080;9.476;2023-02-14T08:05:17;25.87;;;13.73;;
42478;SDS011;28110;47.080;9.476;2023-02-14T08:07:43;31.35;;;13.18;;
42478;SDS011;28110;47.080;9.476;2023-02-14T08:10:10;32.33;;;12.13;;
42478;SDS011;28110;47.080;9.476;2023-02-14T08:12:36;81.73;;;14.10;;
42478;SDS011;28110;47.080;9.476;2023-02-14T08:15:20;27.90;;;13.82;;
42478;SDS011;28110;47.080;9.476;2023-02-14T08:18:04;58.13;;;15.50;;
42478;SDS011;28110;47.080;9.476;2023-02-14T08:20:29;48.00;;;14.17;;
42478;SDS011;28110;47.080;9.476;2023-02-14T08:22:55;59.92;;;15.60;;
42478;SDS011;28110;47.080;9.476;2023-02-14T08:25:21;70.90;;;15.83;;
42478;SDS011;28110;47.080;9.476;2023-02-14T08:27:46;53.60;;;17.07;;
42478;SDS011;28110;47.080;9.476;2023-02-14T08:30:12;30.30;;;14.98;;
42478;SDS011;28110;47.080;9.476;2023-02-14T08:32:38;38.77;;;14.57;;
42478;SDS011;28110;47.080;9.476;2023-02-14T08:35:03;27.83;;;13.43;;
42478;SDS011;28110;47.080;9.476;2023-02-14T08:37:29;26.70;;;14.23;;
42478;SDS011;28110;47.080;9.476;2023-02-14T08:39:54;27.42;;;13.55;;
42478;SDS011;28110;47.080;9.476;2023-02-14T08:42:20;29.03;;;13.50;;
42478;SDS011;28110;47.080;9.476;2023-02-14T08:44:45;30.40;;;14.13;;
42478;SDS011;28110;47.080;9.476;2023-02-14T08:47:11;27.83;;;14.23;;
42478;SDS011;28110;47.080;9.476;2023-02-14T08:49:37;35.85;;;15.85;;
42478;SDS011;28110;47.080;9.476;2023-02-14T08:52:02;34.70;;;14.27;;
42478;SDS011;28110;47.080;9.476;2023-02-14T08:54:28;28.83;;;14.00;;
42478;SDS011;28110;47.080;9.476;2023-02-14T08:56:53;30.58;;;15.43;;
42478;SDS011;28110;47.080;9.476;2023-02-14T08:59:19;30.30;;;14.47;;
42478;SDS011;28110;47.080;9.476;2023-02-14T09:01:44;29.60;;;14.43;;
42478;SDS011;28110;47.080;9.476;2023-02-14T09:04:10;30.10;;;14.55;;
42478;SDS011;28110;47.080;9.476;2023-02-14T09:06:36;30.80;;;15.63;;
42478;SDS011;28110;47.080;9.476;2023-02-14T09:09:03;31.88;;;15.45;;
42478;SDS011;28110;47.080;9.476;2023-02-14T09:11:28;26.73;;;14.87;;
42478;SDS011;28110;47.080;9.476;2023-02-14T09:13:54;26.70;;;13.52;;
42478;SDS011;28110;47.080;9.476;2023-02-14T09:16:21;29.63;;;12.70;;
42478;SDS011;28110;47.080;9.476;2023-02-14T09:18:47;21.65;;;11.80;;
42478;SDS011;28110;47.080;9.476;2023-02-14T09:21:18;26.98;;;12.45;;
42478;SDS011;28110;47.080;9.476;2023-02-14T09:23:45;23.27;;;12.05;;
42478;SDS011;28110;47.080;9.476;2023-02-14T09:26:11;22.67;;;11.97;;
42478;SDS011;28110;47.080;9.476;2023-02-14T09:28:38;24.42;;;12.77;;
42478;SDS011;28110;47.080;9.476;2023-02-14T09:31:08;25.42;;;14.82;;
42478;SDS011;28110;47.080;9.476;2023-02-14T09:33:35;21.35;;;11.88;;
42478;SDS011;28110;47.080;9.476;2023-02-14T09:36:20;24.30;;;11.97;;
42478;SDS011;28110;47.080;9.476;2023-02-14T09:38:46;22.10;;;11.50;;
42478;SDS011;28110;47.080;9.476;2023-02-14T09:41:21;22.23;;;11.23;;
42478;SDS011;28110;47.080;9.476;2023-02-14T09:44:20;22.42;;;12.60;;
42478;SDS011;28110;47.080;9.476;2023-02-14T09:47:05;21.08;;;11.27;;
42478;SDS011;28110;47.080;9.476;2023-02-14T09:49:48;21.40;;;10.82;;
42478;SDS011;28110;47.080;9.476;2023-02-14T09:52:15;23.23;;;11.97;;
42478;SDS011;28110;47.080;9.476;2023-02-14T09:54:45;22.58;;;12.30;;
42478;SDS011;28110;47.080;9.476;2023-02-14T10:08:50;20.70;;;12.00;;
42478;SDS011;28110;47.080;9.476;2023-02-14T10:11:22;21.77;;;10.63;;
42478;SDS011;28110;47.080;9.476;2023-02-14T10:13:53;20.80;;;10.85;;
42478;SDS011;28110;47.080;9.476;2023-02-14T10:21:36;18.80;;;10.85;;
42478;SDS011;28110;47.080;9.476;2023-02-14T10:24:13;22.98;;;10.82;;
42478;SDS011;28110;47.080;9.476;2023-02-14T10:26:52;24.90;;;11.82;;
42478;SDS011;28110;47.080;9.476;2023-02-14T10:29:21;23.52;;;11.85;;
42478;SDS011;28110;47.080;9.476;2023-02-14T10:31:57;21.23;;;11.80;;
42478;SDS011;28110;47.080;9.476;2023-02-14T10:34:26;22.70;;;11.65;;
42478;SDS011;28110;47.080;9.476;2023-02-14T10:37:26;20.42;;;11.65;;
42478;SDS011;28110;47.080;9.476;2023-02-14T10:51:15;25.08;;;12.32;;
42478;SDS011;28110;47.080;9.476;2023-02-14T10:56:42;25.53;;;12.87;;
42478;SDS011;28110;47.080;9.476;2023-02-14T10:59:16;23.77;;;12.63;;
42478;SDS011;28110;47.080;9.476;2023-02-14T11:02:20;24.10;;;14.10;;
42478;SDS011;28110;47.080;9.476;2023-02-14T11:04:49;23.50;;;12.70;;
42478;SDS011;28110;47.080;9.476;2023-02-14T11:07:16;25.75;;;13.43;;
42478;SDS011;28110;47.080;9.476;2023-02-14T11:09:43;25.43;;;13.10;;
42478;SDS011;28110;47.080;9.476;2023-02-14T11:12:09;25.15;;;13.77;;
42478;SDS011;28110;47.080;9.476;2023-02-14T11:14:36;22.02;;;12.48;;
42478;SDS011;28110;47.080;9.476;2023-02-14T11:20:21;22.23;;;12.77;;
42478;SDS011;28110;47.080;9.476;2023-02-14T11:22:54;25.70;;;12.93;;
42478;SDS011;28110;47.080;9.476;2023-02-14T11:25:21;23.70;;;13.52;;
42478;SDS011;28110;47.080;9.476;2023-02-14T11:27:48;22.50;;;12.13;;
42478;SDS011;28110;47.080;9.476;2023-02-14T11:30:32;25.63;;;13.52;;
42478;SDS011;28110;47.080;9.476;2023-02-14T11:33:06;25.38;;;12.77;;
42478;SDS011;28110;47.080;9.476;2023-02-14T11:35:55;25.60;;;12.20;;
42478;SDS011;28110;47.080;9.476;2023-02-14T11:38:29;25.38;;;13.38;;
42478;SDS011;28110;47.080;9.476;2023-02-14T11:41:02;27.27;;;13.63;;
42478;SDS011;28110;47.080;9.476;2023-02-14T11:43:34;25.10;;;13.25;;
42478;SDS011;28110;47.080;9.476;2023-02-14T11:48:39;24.75;;;12.82;;
42478;SDS011;28110;47.080;9.476;2023-02-14T11:51:29;24.70;;;13.35;;
42478;SDS011;28110;47.080;9.476;2023-02-14T11:53:58;26.13;;;15.03;;
42478;SDS011;28110;47.080;9.476;2023-02-14T11:56:44;27.20;;;14.02;;
42478;SDS011;28110;47.080;9.476;2023-02-14T11:59:19;23.60;;;13.07;;
42478;SDS011;28110;47.080;9.476;2023-02-14T12:01:55;24.23;;;12.95;;
42478;SDS011;28110;47.080;9.476;2023-02-14T12:04:31;23.75;;;12.88;;
42478;SDS011;28110;47.080;9.476;2023-02-14T12:09:46;23.23;;;14.18;;
42478;SDS011;28110;47.080;9.476;2023-02-14T12:12:17;24.63;;;14.10;;
42478;SDS011;28110;47.080;9.476;2023-02-14T12:14:46;28.48;;;14.57;;
42478;SDS011;28110;47.080;9.476;2023-02-14T12:19:45;25.03;;;13.07;;
42478;SDS011;28110;47.080;9.476;2023-02-14T12:22:38;23.10;;;12.95;;
42478;SDS011;28110;47.080;9.476;2023-02-14T12:25:11;23.20;;;13.65;;
42478;SDS011;28110;47.080;9.476;2023-02-14T12:30:15;25.17;;;13.65;;
42478;SDS011;28110;47.080;9.476;2023-02-14T12:32:47;26.15;;;12.90;;
42478;SDS011;28110;47.080;9.476;2023-02-14T12:38:44;25.02;;;13.23;;
42478;SDS011;28110;47.080;9.476;2023-02-14T12:43:45;24.35;;;13.15;;
42478;SDS011;28110;47.080;9.476;2023-02-14T12:46:21;26.90;;;13.95;;
42478;SDS011;28110;47.080;9.476;2023-02-14T12:49:25;25.90;;;13.48;;
42478;SDS011;28110;47.080;9.476;2023-02-14T12:57:53;24.75;;;12.88;;
42478;SDS011;28110;47.080;9.476;2023-02-14T13:00:55;23.05;;;13.23;;
42478;SDS011;28110;47.080;9.476;2023-02-14T13:06:30;21.33;;;13.15;;
42478;SDS011;28110;47.080;9.476;2023-02-14T13:12:09;28.15;;;13.75;;
42478;SDS011;28110;47.080;9.476;2023-02-14T13:15:00;27.40;;;14.13;;
42478;SDS011;28110;47.080;9.476;2023-02-14T13:20:43;23.05;;;12.23;;
42478;SDS011;28110;47.080;9.476;2023-02-14T13:23:21;28.83;;;13.73;;
42478;SDS011;28110;47.080;9.476;2023-02-14T13:25:57;21.55;;;12.75;;
42478;SDS011;28110;47.080;9.476;2023-02-14T13:28:27;24.13;;;12.98;;
42478;SDS011;28110;47.080;9.476;2023-02-14T13:30:54;26.00;;;12.65;;
42478;SDS011;28110;47.080;9.476;2023-02-14T13:36:09;23.70;;;13.27;;
42478;SDS011;28110;47.080;9.476;2023-02-14T13:38:39;25.52;;;14.65;;
42478;SDS011;28110;47.080;9.476;2023-02-14T13:41:13;25.38;;;14.32;;
42478;SDS011;28110;47.080;9.476;2023-02-14T13:43:48;23.70;;;12.88;;
42478;SDS011;28110;47.080;9.476;2023-02-14T13:46:43;27.52;;;13.93;;
42478;SDS011;28110;47.080;9.476;2023-02-14T13:51:56;28.05;;;14.02;;
42478;SDS011;28110;47.080;9.476;2023-02-14T13:57:31;27.50;;;13.30;;
42478;SDS011;28110;47.080;9.476;2023-02-14T14:02:43;27.47;;;13.80;;
42478;SDS011;28110;47.080;9.476;2023-02-14T14:10:50;27.60;;;13.48;;
42478;SDS011;28110;47.080;9.476;2023-02-14T14:19:00;25.35;;;12.95;;
42478;SDS011;28110;47.080;9.476;2023-02-14T14:21:44;23.98;;;12.45;;
42478;SDS011;28110;47.080;9.476;2023-02-14T14:24:26;25.48;;;12.77;;
42478;SDS011;28110;47.080;9.476;2023-02-14T14:29:29;25.57;;;14.27;;
42478;SDS011;28110;47.080;9.476;2023-02-14T14:31:55;28.30;;;15.18;;
42478;SDS011;28110;47.080;9.476;2023-02-14T14:34:22;26.42;;;15.15;;
42478;SDS011;28110;47.080;9.476;2023-02-14T14:37:36;25.60;;;11.98;;
42478;SDS011;28110;47.080;9.476;2023-02-14T14:39:48;25.47;;;13.43;;
42478;SDS011;28110;47.080;9.476;2023-02-14T14:42:15;32.63;;;15.98;;
42478;SDS011;28110;47.080;9.476;2023-02-14T14:44:45;36.70;;;17.08;;
42478;SDS011;28110;47.080;9.476;2023-02-14T14:47:18;43.50;;;19.60;;
42478;SDS011;28110;47.080;9.476;2023-02-14T14:49:53;40.90;;;19.33;;
42478;SDS011;28110;47.080;9.476;2023-02-14T14:52:32;28.50;;;13.53;;
42478;SDS011;28110;47.080;9.476;2023-02-14T14:55:05;23.35;;;12.45;;
42478;SDS011;28110;47.080;9.476;2023-02-14T14:57:36;24.42;;;12.63;;
42478;SDS011;28110;47.080;9.476;2023-02-14T15:00:07;22.98;;;11.65;;
42478;SDS011;28110;47.080;9.476;2023-02-14T15:02:54;22.10;;;11.65;;
42478;SDS011;28110;47.080;9.476;2023-02-14T15:05:26;23.37;;;11.90;;
42478;SDS011;28110;47.080;9.476;2023-02-14T15:07:52;20.75;;;11.15;;
42478;SDS011;28110;47.080;9.476;2023-02-14T15:10:36;19.77;;;10.30;;
42478;SDS011;28110;47.080;9.476;2023-02-14T15:13:02;19.50;;;11.18;;
42478;SDS011;28110;47.080;9.476;2023-02-14T15:15:46;21.88;;;11.05;;
42478;SDS011;28110;47.080;9.476;2023-02-14T15:18:14;23.70;;;12.00;;
42478;SDS011;28110;47.080;9.476;2023-02-14T15:20:41;22.77;;;12.93;;
42478;SDS011;28110;47.080;9.476;2023-02-14T15:23:13;24.57;;;13.33;;
42478;SDS011;28110;47.080;9.476;2023-02-14T15:25:47;24.15;;;12.48;;
42478;SDS011;28110;47.080;9.476;2023-02-14T15:28:24;22.45;;;11.63;;
42478;SDS011;28110;47.080;9.476;2023-02-14T15:31:00;24.13;;;12.77;;
42478;SDS011;28110;47.080;9.476;2023-02-14T15:33:28;24.13;;;12.90;;
42478;SDS011;28110;47.080;9.476;2023-02-14T15:35:55;23.67;;;13.00;;
42478;SDS011;28110;47.080;9.476;2023-02-14T15:38:23;29.15;;;13.77;;
42478;SDS011;28110;47.080;9.476;2023-02-14T15:40:50;25.75;;;14.43;;
42478;SDS011;28110;47.080;9.476;2023-02-14T15:45:45;23.58;;;13.50;;
42478;SDS011;28110;47.080;9.476;2023-02-14T15:48:16;26.07;;;13.40;;
42478;SDS011;28110;47.080;9.476;2023-02-14T15:50:47;20.42;;;12.55;;
42478;SDS011;28110;47.080;9.476;2023-02-14T15:55:44;26.83;;;13.70;;
42478;SDS011;28110;47.080;9.476;2023-02-14T15:58:17;26.48;;;14.57;;
42478;SDS011;28110;47.080;9.476;2023-02-14T16:00:46;24.35;;;13.38;;
42478;SDS011;28110;47.080;9.476;2023-02-14T16:03:22;23.25;;;12.88;;
42478;SDS011;28110;47.080;9.476;2023-02-14T16:05:53;24.87;;;12.43;;
42478;SDS011;28110;47.080;9.476;2023-02-14T16:08:32;24.95;;;13.65;;
42478;SDS011;28110;47.080;9.476;2023-02-14T16:13:38;23.95;;;12.23;;
42478;SDS011;28110;47.080;9.476;2023-02-14T16:16:10;22.70;;;11.90;;
42478;SDS011;28110;47.080;9.476;2023-02-14T16:18:41;21.90;;;11.97;;
42478;SDS011;28110;47.080;9.476;2023-02-14T16:21:09;21.38;;;12.05;;
42478;SDS011;28110;47.080;9.476;2023-02-14T16:23:43;18.00;;;11.00;;
42478;SDS011;28110;47.080;9.476;2023-02-14T16:26:10;24.60;;;10.90;;
42478;SDS011;28110;47.080;9.476;2023-02-14T16:28:36;21.05;;;11.27;;
42478;SDS011;28110;47.080;9.476;2023-02-14T16:31:02;18.87;;;9.87;;
42478;SDS011;28110;47.080;9.476;2023-02-14T16:33:34;21.33;;;11.05;;
42478;SDS011;28110;47.080;9.476;2023-02-14T16:38:41;23.77;;;11.95;;
42478;SDS011;28110;47.080;9.476;2023-02-14T16:41:15;22.00;;;10.90;;
42478;SDS011;28110;47.080;9.476;2023-02-14T16:43:44;17.77;;;10.32;;
42478;SDS011;28110;47.080;9.476;2023-02-14T16:46:11;23.80;;;11.38;;
42478;SDS011;28110;47.080;9.476;2023-02-14T16:48:38;24.23;;;12.50;;
42478;SDS011;28110;47.080;9.476;2023-02-14T16:51:04;22.95;;;11.05;;
42478;SDS011;28110;47.080;9.476;2023-02-14T16:53:30;26.10;;;13.20;;
42478;SDS011;28110;47.080;9.476;2023-02-14T16:55:56;29.48;;;14.25;;
42478;SDS011;28110;47.080;9.476;2023-02-14T16:58:22;26.87;;;12.63;;
42478;SDS011;28110;47.080;9.476;2023-02-14T17:00:52;28.02;;;14.85;;
42478;SDS011;28110;47.080;9.476;2023-02-14T17:03:18;31.80;;;15.33;;
42478;SDS011;28110;47.080;9.476;2023-02-14T17:05:43;26.58;;;13.52;;
42478;SDS011;28110;47.080;9.476;2023-02-14T17:08:10;26.98;;;14.35;;